Time;durP1;ratioP1;P1;durP2;ratioP2;P2;SDS_P1;SDS_P2;PMS_P1;PMS_P2;Temp;Humidity;BMP_temperature;BMP_pressure;BME280_temperature;BME280_humidity;BME280_pressure;Samples;Min_cycle;Max_cycle;Signal;HPM_P1;HPM_P2
2021/05/28 00:00:47;;;;;;;12.70;3.65;;;12.20;99.90;;;;;;1906239;74;21220;-74
2021/05/28 00:03:15;;;;;;;14.78;3.72;;;12.10;99.90;;;;;;1904834;74;21142;-74
2021/05/28 00:05:42;;;;;;;11.25;3.95;;;12.20;99.90;;;;;;1904687;74;21627;-74
2021/05/28 00:08:10;;;;;;;15.40;3.67;;;12.20;99.90;;;;;;1904822;74;21094;-74
2021/05/28 00:10:37;;;;;;;15.20;3.20;;;12.10;99.90;;;;;;1905309;74;21496;-74
2021/05/28 00:13:05;;;;;;;11.60;3.37;;;12.10;99.90;;;;;;1906947;74;21072;-74
2021/05/28 00:15:33;;;;;;;10.25;3.60;;;12.20;99.90;;;;;;1902238;74;21128;-74
2021/05/28 00:18:01;;;;;;;17.60;4.12;;;12.10;99.90;;;;;;1905375;74;21115;-74
2021/05/28 00:20:29;;;;;;;12.58;4.45;;;12.00;99.90;;;;;;1902860;74;21644;-74
2021/05/28 00:22:56;;;;;;;17.02;4.55;;;12.00;99.90;;;;;;1907566;74;21177;-74
2021/05/28 00:25:24;;;;;;;13.62;4.60;;;11.90;99.90;;;;;;1906121;74;21059;-74
2021/05/28 00:27:51;;;;;;;14.60;5.03;;;11.80;99.90;;;;;;1907686;74;21199;-74
2021/05/28 00:30:19;;;;;;;14.85;4.83;;;11.70;99.90;;;;;;1902638;74;21084;-74
2021/05/28 00:32:47;;;;;;;20.15;6.60;;;11.80;99.90;;;;;;1904972;74;21184;-74
2021/05/28 00:35:14;;;;;;;19.17;4.85;;;11.80;99.90;;;;;;1905887;74;21123;-74
2021/05/28 00:37:42;;;;;;;17.05;5.67;;;11.80;99.90;;;;;;1905190;74;22153;-74
2021/05/28 00:40:11;;;;;;;15.20;5.65;;;11.60;99.90;;;;;;1905378;74;21799;-74
2021/05/28 00:42:38;;;;;;;15.93;5.67;;;11.60;99.90;;;;;;1907021;74;21099;-74
2021/05/28 00:45:07;;;;;;;18.42;5.25;;;11.50;99.90;;;;;;1906598;74;21174;-74
2021/05/28 00:47:35;;;;;;;17.20;6.30;;;11.50;99.90;;;;;;1906031;74;21245;-74
2021/05/28 00:50:04;;;;;;;19.40;5.37;;;11.50;99.90;;;;;;1905084;74;21578;-74
2021/05/28 00:52:31;;;;;;;14.80;5.85;;;11.60;99.90;;;;;;1905274;74;21298;-74
2021/05/28 00:54:59;;;;;;;13.93;5.15;;;11.60;99.90;;;;;;1906882;74;21581;-74
2021/05/28 00:57:29;;;;;;;17.02;5.42;;;11.50;99.90;;;;;;1901169;74;21483;-74
2021/05/28 00:59:58;;;;;;;17.98;5.40;;;11.40;99.90;;;;;;1905767;74;21143;-74
2021/05/28 01:02:27;;;;;;;15.40;4.70;;;11.40;99.90;;;;;;1905088;74;21136;-74
2021/05/28 01:04:55;;;;;;;17.52;5.08;;;11.30;99.90;;;;;;1905359;74;21505;-74
2021/05/28 01:07:22;;;;;;;16.07;4.92;;;11.30;99.90;;;;;;1905772;74;21084;-74
2021/05/28 01:09:50;;;;;;;13.72;4.50;;;11.30;99.90;;;;;;1907087;74;21145;-74
2021/05/28 01:12:17;;;;;;;12.05;4.05;;;11.30;99.90;;;;;;1905397;74;21185;-76
2021/05/28 01:14:45;;;;;;;10.63;4.08;;;11.20;99.90;;;;;;1903884;74;21125;-76
2021/05/28 01:17:12;;;;;;;12.00;3.87;;;11.20;99.90;;;;;;1905969;74;21166;-76
2021/05/28 01:19:40;;;;;;;11.48;4.00;;;11.00;99.90;;;;;;1903205;74;21064;-77
2021/05/28 01:22:09;;;;;;;8.73;3.15;;;10.90;99.90;;;;;;1905949;74;21112;-77
2021/05/28 01:24:37;;;;;;;12.20;3.90;;;11.00;99.90;;;;;;1905136;74;21986;-74
2021/05/28 01:27:05;;;;;;;10.43;3.98;;;11.00;99.90;;;;;;1906610;74;21646;-74
2021/05/28 01:29:32;;;;;;;11.97;3.70;;;11.00;99.90;;;;;;1905609;74;21083;-74
2021/05/28 01:32:00;;;;;;;8.58;3.52;;;10.90;99.90;;;;;;1906855;74;21128;-74
2021/05/28 01:34:27;;;;;;;14.45;4.20;;;11.00;99.90;;;;;;1906430;74;21291;-76
2021/05/28 01:36:55;;;;;;;10.68;3.87;;;11.00;99.90;;;;;;1902780;74;21882;-76
2021/05/28 01:39:22;;;;;;;13.20;3.55;;;11.10;99.90;;;;;;1905985;74;21533;-74
2021/05/28 01:41:50;;;;;;;10.50;3.80;;;11.20;99.90;;;;;;1906985;74;21608;-73
2021/05/28 01:44:18;;;;;;;9.68;3.35;;;11.10;99.90;;;;;;1906595;74;21171;-74
2021/05/28 01:46:48;;;;;;;13.43;3.98;;;11.00;99.90;;;;;;1906337;74;21166;-73
2021/05/28 01:49:15;;;;;;;11.57;3.70;;;11.10;99.90;;;;;;1906934;74;22170;-73
2021/05/28 01:51:51;;;;;;;12.43;3.60;;;11.00;99.90;;;;;;1904950;74;21189;-73
2021/05/28 01:54:22;;;;;;;10.45;4.10;;;10.90;99.90;;;;;;1906658;74;21071;-75
2021/05/28 01:56:51;;;;;;;12.15;4.03;;;11.00;99.90;;;;;;1907277;74;21151;-76
2021/05/28 01:59:27;;;;;;;13.75;4.33;;;11.00;99.90;;;;;;1904964;74;21735;-74
2021/05/28 02:01:55;;;;;;;12.65;4.17;;;11.10;99.90;;;;;;1904268;74;21164;-75
2021/05/28 02:04:23;;;;;;;14.13;4.53;;;10.90;99.90;;;;;;1904697;74;21025;-74
2021/05/28 02:06:52;;;;;;;12.75;5.05;;;10.90;99.90;;;;;;1905595;74;21047;-74
2021/05/28 02:09:19;;;;;;;14.58;5.20;;;10.80;99.90;;;;;;1902139;74;21231;-74
2021/05/28 02:11:47;;;;;;;16.17;5.20;;;10.70;99.90;;;;;;1904775;74;21717;-75
2021/05/28 02:14:14;;;;;;;17.50;6.15;;;10.70;99.90;;;;;;1854216;76;21707;-75
2021/05/28 02:16:42;;;;;;;15.40;6.08;;;10.70;99.90;;;;;;1902537;74;21563;-75
2021/05/28 02:19:10;;;;;;;15.90;6.22;;;10.80;99.90;;;;;;1908038;74;21348;-75
2021/05/28 02:21:38;;;;;;;18.77;5.95;;;11.00;99.90;;;;;;1905186;74;21209;-74
2021/05/28 02:24:11;;;;;;;18.45;6.42;;;11.00;99.90;;;;;;1904196;74;21019;-75
2021/05/28 02:26:35;;;;;;;20.25;6.67;;;11.00;99.90;;;;;;1906283;74;21517;-74
2021/05/28 02:29:03;;;;;;;19.77;6.50;;;10.90;99.90;;;;;;1906835;74;21108;-74
2021/05/28 02:31:31;;;;;;;19.10;7.75;;;11.10;99.90;;;;;;1903884;74;21172;-74
2021/05/28 02:33:58;;;;;;;22.75;8.28;;;11.20;99.90;;;;;;1905399;74;21093;-74
2021/05/28 02:36:26;;;;;;;22.37;8.83;;;11.20;99.90;;;;;;1906992;74;21189;-74
2021/05/28 02:38:53;;;;;;;26.10;9.33;;;11.40;99.90;;;;;;1903932;74;21174;-74
2021/05/28 02:41:21;;;;;;;28.15;10.68;;;11.50;99.90;;;;;;1904292;74;21090;-74
2021/05/28 02:43:49;;;;;;;24.85;10.00;;;11.60;99.90;;;;;;1906888;74;21094;-74
2021/05/28 02:46:17;;;;;;;21.48;11.15;;;11.50;99.90;;;;;;1905641;74;22146;-74
2021/05/28 02:48:45;;;;;;;26.65;11.15;;;11.60;99.90;;;;;;1907924;74;21080;-74
2021/05/28 02:51:12;;;;;;;25.77;11.15;;;11.60;99.90;;;;;;1905712;74;21121;-74
2021/05/28 02:53:40;;;;;;;22.45;10.18;;;11.60;99.90;;;;;;1905630;74;21025;-74
2021/05/28 02:56:07;;;;;;;26.70;10.65;;;11.60;99.90;;;;;;1907870;74;21119;-74
2021/05/28 02:58:35;;;;;;;23.02;9.88;;;11.50;99.90;;;;;;1903184;74;21134;-74
2021/05/28 03:01:03;;;;;;;19.45;10.25;;;11.60;99.90;;;;;;1900405;73;21046;-77
2021/05/28 03:03:31;;;;;;;22.62;10.15;;;11.60;99.90;;;;;;1822375;77;21117;-77
2021/05/28 03:05:59;;;;;;;21.05;10.68;;;11.60;99.90;;;;;;1823219;77;21762;-77
2021/05/28 03:08:27;;;;;;;18.70;10.48;;;11.50;99.90;;;;;;1819753;78;21138;-77
2021/05/28 03:10:55;;;;;;;17.90;9.78;;;11.50;99.90;;;;;;1823226;77;21098;-77
2021/05/28 03:13:23;;;;;;;21.30;10.38;;;11.60;99.90;;;;;;1809430;78;21156;-77
2021/05/28 03:15:51;;;;;;;25.72;10.60;;;11.60;99.90;;;;;;1815687;78;21245;-77
2021/05/28 03:18:21;;;;;;;21.37;10.40;;;11.70;99.90;;;;;;1810003;77;21116;-76
2021/05/28 03:20:56;;;;;;;21.48;10.50;;;11.60;99.90;;;;;;1817089;77;21590;-76
2021/05/28 03:23:19;;;;;;;20.72;10.00;;;11.70;99.90;;;;;;1811449;78;21116;-76
2021/05/28 03:25:46;;;;;;;26.02;11.95;;;11.70;99.90;;;;;;1811495;78;21140;-76
2021/05/28 03:28:14;;;;;;;19.60;10.10;;;11.60;99.90;;;;;;1814965;77;21131;-76
2021/05/28 03:30:41;;;;;;;19.00;10.08;;;11.60;99.90;;;;;;1818105;77;21543;-75
2021/05/28 03:33:09;;;;;;;18.73;10.23;;;11.60;99.90;;;;;;1818535;77;21147;-76
2021/05/28 03:35:36;;;;;;;24.07;11.30;;;11.60;99.90;;;;;;1814119;77;21214;-75
2021/05/28 03:38:04;;;;;;;14.73;10.00;;;11.70;99.90;;;;;;1819278;77;21648;-76
2021/05/28 03:40:31;;;;;;;19.12;10.15;;;11.70;99.90;;;;;;1812987;77;21089;-76
2021/05/28 03:42:59;;;;;;;25.48;10.63;;;11.80;99.90;;;;;;1818368;77;21120;-76
2021/05/28 03:45:26;;;;;;;18.87;9.98;;;11.80;99.90;;;;;;1814902;77;21102;-76
2021/05/28 03:47:54;;;;;;;17.62;9.73;;;11.80;99.90;;;;;;1812409;77;21058;-76
2021/05/28 03:50:21;;;;;;;25.20;10.85;;;11.80;99.90;;;;;;1816487;77;21119;-76
2021/05/28 03:52:49;;;;;;;22.52;10.48;;;11.80;99.90;;;;;;1815263;77;21203;-76
2021/05/28 03:55:16;;;;;;;17.12;9.93;;;11.70;99.90;;;;;;1814912;78;21112;-76
2021/05/28 03:57:44;;;;;;;17.42;9.58;;;11.70;99.90;;;;;;1815009;77;21218;-76
2021/05/28 04:00:12;;;;;;;17.02;10.03;;;11.70;99.90;;;;;;1817577;78;21190;-76
2021/05/28 04:02:40;;;;;;;14.68;9.18;;;11.80;99.90;;;;;;1816586;77;21580;-76
2021/05/28 04:05:09;;;;;;;19.37;10.13;;;11.70;99.90;;;;;;1817598;78;21088;-76
2021/05/28 04:07:36;;;;;;;16.37;10.18;;;11.70;99.90;;;;;;1816791;78;21535;-76
2021/05/28 04:10:05;;;;;;;17.15;10.15;;;11.80;99.90;;;;;;1814881;78;21144;-75
2021/05/28 04:12:32;;;;;;;18.50;10.55;;;11.90;99.90;;;;;;1811804;78;21183;-76
2021/05/28 04:15:00;;;;;;;16.65;10.88;;;12.00;99.90;;;;;;1818384;78;22214;-76
2021/05/28 04:17:27;;;;;;;15.58;10.25;;;11.90;99.90;;;;;;1819221;78;21178;-76
2021/05/28 04:19:55;;;;;;;16.90;10.65;;;11.80;99.90;;;;;;1811971;78;21061;-76
2021/05/28 04:22:22;;;;;;;19.60;10.53;;;11.80;99.90;;;;;;1816916;77;21128;-76
2021/05/28 04:24:50;;;;;;;13.60;9.30;;;11.80;99.90;;;;;;1811395;78;21120;-76
2021/05/28 04:27:17;;;;;;;16.42;10.10;;;11.70;99.90;;;;;;1814279;78;21151;-76
2021/05/28 04:29:45;;;;;;;17.20;10.80;;;11.80;99.90;;;;;;1815474;77;21127;-77
2021/05/28 04:32:12;;;;;;;17.37;10.85;;;11.90;99.90;;;;;;1813250;78;21778;-76
2021/05/28 04:34:40;;;;;;;20.68;10.95;;;11.90;99.90;;;;;;1809804;78;21112;-76
2021/05/28 04:37:07;;;;;;;19.95;10.80;;;11.90;99.90;;;;;;1809858;78;21076;-76
2021/05/28 04:39:35;;;;;;;14.47;10.40;;;11.80;99.90;;;;;;1810955;78;22390;-76
2021/05/28 04:42:03;;;;;;;18.42;10.00;;;11.70;99.90;;;;;;1810203;77;21213;-76
2021/05/28 04:44:30;;;;;;;17.52;11.43;;;11.70;99.90;;;;;;1812470;78;21576;-76
2021/05/28 04:46:58;;;;;;;18.60;11.35;;;11.80;99.90;;;;;;1814619;78;21081;-76
2021/05/28 04:49:26;;;;;;;18.70;11.55;;;11.80;99.90;;;;;;1813245;78;21077;-76
2021/05/28 04:51:53;;;;;;;16.77;10.85;;;11.90;99.90;;;;;;1815463;78;21137;-78
2021/05/28 04:54:22;;;;;;;15.13;10.23;;;11.90;99.90;;;;;;1811078;78;21162;-78
2021/05/28 04:56:49;;;;;;;14.28;9.75;;;11.90;99.90;;;;;;1815148;78;21121;-78
2021/05/28 04:59:17;;;;;;;16.42;11.65;;;12.00;99.90;;;;;;1812758;77;21108;-78
2021/05/28 05:01:44;;;;;;;16.40;11.70;;;12.00;99.90;;;;;;1811587;78;21771;-76
2021/05/28 05:04:12;;;;;;;26.25;16.95;;;11.90;99.90;;;;;;1813866;78;21565;-79
2021/05/28 05:06:40;;;;;;;24.00;16.82;;;12.00;99.90;;;;;;1815677;78;22161;-79
2021/05/28 05:09:07;;;;;;;25.30;16.95;;;11.90;99.90;;;;;;1811736;78;21598;-78
2021/05/28 05:11:35;;;;;;;22.75;15.25;;;11.80;99.90;;;;;;1812609;77;21810;-76
2021/05/28 05:14:02;;;;;;;26.68;15.70;;;11.90;99.90;;;;;;1813884;78;21112;-76
2021/05/28 05:16:30;;;;;;;17.98;11.90;;;12.00;99.90;;;;;;1824253;78;21055;-77
2021/05/28 05:18:57;;;;;;;19.65;12.50;;;12.00;99.90;;;;;;1820221;77;21114;-77
2021/05/28 05:21:25;;;;;;;19.77;10.78;;;12.00;99.90;;;;;;1819586;77;21189;-77
2021/05/28 05:23:52;;;;;;;17.55;10.93;;;12.10;99.90;;;;;;1812562;78;21150;-77
2021/05/28 05:26:20;;;;;;;15.72;10.50;;;12.20;99.90;;;;;;1815349;78;21111;-77
2021/05/28 05:28:47;;;;;;;17.17;9.43;;;12.20;99.90;;;;;;1818537;78;21583;-77
2021/05/28 05:31:15;;;;;;;13.50;9.28;;;12.20;99.90;;;;;;1817243;77;21206;-79
2021/05/28 05:33:42;;;;;;;14.38;9.13;;;12.20;99.90;;;;;;1814195;78;21158;-80
2021/05/28 05:36:10;;;;;;;15.40;9.33;;;12.10;99.90;;;;;;1819089;77;21059;-75
2021/05/28 05:38:37;;;;;;;16.15;8.90;;;12.00;99.90;;;;;;1812336;78;21483;-75
2021/05/28 05:41:05;;;;;;;11.93;9.13;;;12.00;99.90;;;;;;1816421;77;21109;-76
2021/05/28 05:43:32;;;;;;;16.85;9.05;;;12.00;99.90;;;;;;1816999;77;21121;-77
2021/05/28 05:46:01;;;;;;;16.10;9.90;;;11.90;99.90;;;;;;1812951;78;21166;-78
2021/05/28 05:48:29;;;;;;;12.98;9.03;;;11.90;99.90;;;;;;1813882;77;21255;-77
2021/05/28 05:50:57;;;;;;;14.45;9.43;;;11.90;99.90;;;;;;1815218;77;21105;-78
2021/05/28 05:53:25;;;;;;;13.72;8.80;;;12.00;99.90;;;;;;1813863;78;21124;-79
2021/05/28 05:55:52;;;;;;;12.40;8.68;;;12.00;99.90;;;;;;1813894;78;22329;-80
2021/05/28 05:58:20;;;;;;;12.05;8.88;;;11.80;99.90;;;;;;1811064;77;21075;-77
2021/05/28 06:00:47;;;;;;;10.90;8.25;;;11.80;99.90;;;;;;1810843;77;21249;-80
2021/05/28 06:03:15;;;;;;;12.93;9.30;;;11.90;99.90;;;;;;1814870;78;21206;-78
2021/05/28 06:05:42;;;;;;;12.00;8.55;;;11.90;99.90;;;;;;1813887;78;21108;-78
2021/05/28 06:08:10;;;;;;;15.32;9.70;;;11.90;99.90;;;;;;1815530;78;21158;-80
2021/05/28 06:10:40;;;;;;;13.35;9.25;;;11.90;99.90;;;;;;1813871;77;21133;-78
2021/05/28 06:13:09;;;;;;;14.90;9.53;;;11.70;99.90;;;;;;1815966;78;21246;-78
2021/05/28 06:15:37;;;;;;;12.82;8.65;;;11.80;99.90;;;;;;1812342;78;21197;-79
2021/05/28 06:18:04;;;;;;;14.07;9.23;;;11.80;99.90;;;;;;1817053;78;21116;-77
2021/05/28 06:20:32;;;;;;;15.65;10.10;;;11.80;99.90;;;;;;1814212;78;21089;-76
2021/05/28 06:23:00;;;;;;;16.90;10.68;;;11.70;99.90;;;;;;1817610;77;21125;-76
2021/05/28 06:25:28;;;;;;;16.95;10.28;;;11.80;99.90;;;;;;1817997;77;21124;-77
2021/05/28 06:27:56;;;;;;;16.30;10.20;;;11.80;99.90;;;;;;1817352;78;21703;-77
2021/05/28 06:30:23;;;;;;;13.85;9.85;;;11.80;99.90;;;;;;1815023;78;21105;-77
2021/05/28 06:32:51;;;;;;;12.78;8.68;;;11.90;99.90;;;;;;1815493;77;21140;-78
2021/05/28 06:35:19;;;;;;;15.05;8.80;;;11.80;99.90;;;;;;1817585;78;21218;-78
2021/05/28 06:37:46;;;;;;;13.30;8.75;;;11.80;99.90;;;;;;1814599;78;21101;-78
2021/05/28 06:40:14;;;;;;;12.75;8.35;;;11.90;99.90;;;;;;1818487;78;21101;-78
2021/05/28 06:42:41;;;;;;;11.53;8.03;;;11.90;99.90;;;;;;1816506;77;21136;-78
2021/05/28 06:45:09;;;;;;;11.70;7.75;;;12.00;99.90;;;;;;1812728;78;21096;-78
2021/05/28 06:47:37;;;;;;;14.15;8.88;;;11.90;99.90;;;;;;1815061;78;21174;-78
2021/05/28 06:50:04;;;;;;;13.43;8.40;;;12.00;99.90;;;;;;1815674;78;21197;-77
2021/05/28 06:52:32;;;;;;;12.20;7.97;;;11.80;99.90;;;;;;1812469;77;21140;-78
2021/05/28 06:54:59;;;;;;;12.33;7.72;;;11.80;99.90;;;;;;1813265;78;21214;-78
2021/05/28 06:57:27;;;;;;;15.03;7.53;;;11.90;99.90;;;;;;1813120;77;21222;-79
2021/05/28 06:59:54;;;;;;;11.45;7.12;;;12.00;99.90;;;;;;1811595;78;21115;-78
2021/05/28 07:02:23;;;;;;;11.55;7.95;;;12.10;99.90;;;;;;1817093;78;21249;-78
2021/05/28 07:04:50;;;;;;;14.25;8.58;;;12.20;99.90;;;;;;1809664;78;21736;-78
2021/05/28 07:07:18;;;;;;;11.43;6.97;;;12.10;99.90;;;;;;1812222;77;21106;-78
2021/05/28 07:09:45;;;;;;;11.53;7.50;;;12.10;99.90;;;;;;1814188;78;21093;-79
2021/05/28 07:12:13;;;;;;;10.63;7.22;;;12.20;99.90;;;;;;1817343;77;21086;-78
2021/05/28 07:14:40;;;;;;;11.57;6.85;;;12.30;99.90;;;;;;1815669;78;21100;-78
2021/05/28 07:17:08;;;;;;;14.03;7.58;;;12.20;99.90;;;;;;1816449;77;21080;-78
2021/05/28 07:19:36;;;;;;;10.70;6.22;;;12.20;99.90;;;;;;1811490;78;21166;-79
2021/05/28 07:22:05;;;;;;;13.62;7.58;;;12.30;99.90;;;;;;1811207;77;21183;-78
2021/05/28 07:24:32;;;;;;;13.53;7.37;;;12.30;99.90;;;;;;1813011;78;21250;-79
2021/05/28 07:26:59;;;;;;;13.55;7.17;;;12.30;99.90;;;;;;1813871;77;21128;-78
2021/05/28 07:29:27;;;;;;;12.60;6.95;;;12.40;99.90;;;;;;1813958;78;21038;-78
2021/05/28 07:31:55;;;;;;;10.60;5.92;;;12.40;99.90;;;;;;1812122;77;21589;-78
2021/05/28 07:34:23;;;;;;;13.20;6.90;;;12.30;99.90;;;;;;1816392;77;21629;-78
2021/05/28 07:36:50;;;;;;;16.45;6.45;;;12.40;99.90;;;;;;1813003;77;21675;-78
2021/05/28 07:39:19;;;;;;;14.50;5.97;;;12.50;99.90;;;;;;1818751;77;22207;-78
2021/05/28 07:41:47;;;;;;;16.23;5.75;;;12.60;99.90;;;;;;1816096;77;21140;-78
2021/05/28 07:44:15;;;;;;;11.30;6.17;;;12.70;99.90;;;;;;1811433;77;21232;-78
2021/05/28 07:46:45;;;;;;;11.93;5.50;;;12.60;99.90;;;;;;1817081;78;21189;-78
2021/05/28 07:49:14;;;;;;;12.60;5.58;;;12.60;99.90;;;;;;1814090;77;21214;-78
2021/05/28 07:51:42;;;;;;;10.28;5.70;;;12.70;99.90;;;;;;1813757;77;21128;-79
2021/05/28 07:54:09;;;;;;;12.18;5.78;;;12.70;99.90;;;;;;1810797;77;21711;-78
2021/05/28 07:56:38;;;;;;;11.70;5.60;;;12.70;99.90;;;;;;1815662;77;21092;-78
2021/05/28 07:59:07;;;;;;;13.13;5.00;;;12.80;99.90;;;;;;1814441;78;21124;-78
2021/05/28 08:01:35;;;;;;;13.98;6.28;;;12.90;99.90;;;;;;1812021;78;21138;-78
2021/05/28 08:04:03;;;;;;;10.63;5.70;;;12.90;99.90;;;;;;1811338;77;21101;-78
2021/05/28 08:06:31;;;;;;;12.00;5.25;;;12.90;99.90;;;;;;1817721;78;21155;-78
2021/05/28 08:08:58;;;;;;;13.03;5.87;;;13.00;99.90;;;;;;1813880;77;21065;-79
2021/05/28 08:11:26;;;;;;;12.78;5.72;;;13.00;99.90;;;;;;1814375;77;21146;-78
2021/05/28 08:13:53;;;;;;;14.33;5.62;;;13.10;99.90;;;;;;1812806;78;21084;-79
2021/05/28 08:16:21;;;;;;;12.78;5.62;;;13.10;99.90;;;;;;1818308;78;21100;-78
2021/05/28 08:18:48;;;;;;;9.68;4.97;;;13.10;99.90;;;;;;1813764;78;21564;-78
2021/05/28 08:21:16;;;;;;;13.70;5.08;;;13.30;99.90;;;;;;1810517;77;21132;-78
2021/05/28 08:23:43;;;;;;;14.75;5.22;;;13.40;99.90;;;;;;1810156;77;21180;-78
2021/05/28 08:26:11;;;;;;;10.18;4.90;;;13.60;99.90;;;;;;1815065;78;21613;-77
2021/05/28 08:28:39;;;;;;;12.07;5.17;;;13.70;99.90;;;;;;1814196;77;22157;-78
2021/05/28 08:31:08;;;;;;;10.72;4.75;;;13.60;99.90;;;;;;1815149;77;21128;-78
2021/05/28 08:33:44;;;;;;;10.45;4.33;;;13.50;99.90;;;;;;1812914;78;21516;-79
2021/05/28 08:36:07;;;;;;;16.32;5.00;;;13.50;99.90;;;;;;1818691;77;21150;-78
2021/05/28 08:38:34;;;;;;;10.95;4.28;;;13.40;99.90;;;;;;1815085;78;21045;-77
2021/05/28 08:41:03;;;;;;;10.85;4.67;;;13.50;99.90;;;;;;1817946;77;21128;-78
2021/05/28 08:43:30;;;;;;;9.70;4.30;;;13.60;99.90;;;;;;1815046;78;21050;-77
2021/05/28 08:46:01;;;;;;;10.85;4.55;;;13.70;99.90;;;;;;1817197;77;21568;-76
2021/05/28 08:48:27;;;;;;;10.20;4.28;;;13.80;99.90;;;;;;1812560;78;21062;-77
2021/05/28 08:50:55;;;;;;;15.25;5.25;;;14.00;99.90;;;;;;1816154;77;21184;-77
2021/05/28 08:53:24;;;;;;;12.40;4.67;;;14.00;99.90;;;;;;1813769;78;21064;-76
2021/05/28 08:55:51;;;;;;;12.13;4.62;;;13.90;99.90;;;;;;1811207;78;21533;-77
2021/05/28 08:58:22;;;;;;;11.43;5.15;;;14.00;99.90;;;;;;1815429;78;21542;-76
2021/05/28 09:00:50;;;;;;;11.53;5.00;;;14.00;99.90;;;;;;1816569;77;21136;-76
2021/05/28 09:03:29;;;;;;;10.58;5.10;;;14.10;99.90;;;;;;1854271;72;21153;-75
2021/05/28 09:05:59;;;;;;;15.48;4.92;;;14.30;99.90;;;;;;1863012;75;21113;-75
2021/05/28 09:08:31;;;;;;;12.68;4.42;;;14.40;99.90;;;;;;1860170;75;21537;-75
2021/05/28 09:11:07;;;;;;;11.40;4.53;;;14.40;99.90;;;;;;1866082;75;21106;-74
2021/05/28 09:13:36;;;;;;;15.90;4.50;;;14.30;99.90;;;;;;1846011;75;21552;-75
2021/05/28 09:16:13;;;;;;;12.05;4.62;;;14.40;99.90;;;;;;1842834;77;21205;-75
2021/05/28 09:18:44;;;;;;;11.38;4.47;;;14.50;99.90;;;;;;1837706;77;21119;-74
2021/05/28 09:21:14;;;;;;;11.80;4.67;;;14.50;99.90;;;;;;1840839;76;21156;-76
2021/05/28 09:23:41;;;;;;;12.03;4.60;;;14.70;99.90;;;;;;1837606;77;22779;-74
2021/05/28 09:26:10;;;;;;;10.05;3.85;;;14.90;99.90;;;;;;1842347;77;21070;-74
2021/05/28 09:28:43;;;;;;;11.05;4.45;;;15.10;99.90;;;;;;1835868;76;21109;-75
2021/05/28 09:31:14;;;;;;;12.15;4.37;;;15.20;99.90;;;;;;1839906;77;21117;-75
2021/05/28 09:33:45;;;;;;;9.88;3.90;;;15.20;99.90;;;;;;1843575;76;21584;-75
2021/05/28 09:36:19;;;;;;;12.25;3.47;;;15.30;99.90;;;;;;1843730;77;21689;-75
2021/05/28 09:39:13;;;;;;;10.45;3.70;;;15.50;99.90;;;;;;1841014;77;21183;-74
2021/05/28 09:41:52;;;;;;;9.20;3.65;;;15.70;99.90;;;;;;1841531;77;21208;-74
2021/05/28 09:44:22;;;;;;;9.73;3.85;;;15.60;99.90;;;;;;1840459;77;21211;-74
2021/05/28 09:47:17;;;;;;;8.58;3.42;;;15.60;99.90;;;;;;1818439;77;21139;-74
2021/05/28 09:49:54;;;;;;;14.00;4.17;;;15.60;99.90;;;;;;1864920;76;21164;-73
2021/05/28 09:52:24;;;;;;;9.55;3.62;;;15.60;99.90;;;;;;1865487;76;21156;-74
2021/05/28 09:55:10;;;;;;;8.15;3.30;;;15.40;99.90;;;;;;1866502;76;21154;-74
2021/05/28 09:57:48;;;;;;;12.58;2.60;;;15.50;99.90;;;;;;1860542;76;21034;-74
2021/05/28 10:00:25;;;;;;;9.00;3.02;;;15.70;99.90;;;;;;1863525;76;21152;-74
2021/05/28 10:03:12;;;;;;;12.95;3.42;;;15.90;99.90;;;;;;1861293;76;21157;-74
2021/05/28 10:05:41;;;;;;;10.38;2.95;;;16.10;99.90;;;;;;1867588;76;21113;-74
2021/05/28 10:08:13;;;;;;;11.18;3.05;;;16.20;99.90;;;;;;1864371;75;21630;-75
2021/05/28 10:10:41;;;;;;;;;;;16.20;99.90;;;;;;1861479;76;21740;-75
2021/05/28 10:13:10;;;;;;;9.83;2.80;;;16.30;99.90;;;;;;1863764;75;20182;-75
2021/05/28 10:15:52;;;;;;;8.60;2.90;;;16.50;99.90;;;;;;1868240;76;21190;-75
2021/05/28 10:18:20;;;;;;;8.98;2.62;;;16.60;99.90;;;;;;1865456;76;21622;-74
2021/05/28 10:20:51;;;;;;;8.43;2.98;;;16.70;99.90;;;;;;1866359;76;21107;-74
2021/05/28 10:23:18;;;;;;;10.88;3.33;;;16.80;99.90;;;;;;1863871;75;22207;-74
2021/05/28 10:25:47;;;;;;;7.58;2.55;;;17.00;99.90;;;;;;1866725;76;21125;-74
2021/05/28 10:28:22;;;;;;;6.72;2.27;;;16.90;99.90;;;;;;1866884;76;21191;-74
2021/05/28 10:30:52;;;;;;;6.10;2.55;;;16.90;99.90;;;;;;1863636;76;21136;-75
2021/05/28 10:33:23;;;;;;;5.72;2.67;;;16.90;99.90;;;;;;1864493;76;21100;-76
2021/05/28 10:35:54;;;;;;;8.70;2.87;;;16.90;99.90;;;;;;1867421;76;21108;-76
2021/05/28 10:38:34;;;;;;;11.47;2.63;;;16.90;99.90;;;;;;1864852;76;21148;-75
2021/05/28 10:41:07;;;;;;;10.63;2.55;;;16.90;99.90;;;;;;1859026;76;21196;-76
2021/05/28 10:43:41;;;;;;;9.20;3.00;;;16.90;99.90;;;;;;1864980;76;21699;-74
2021/05/28 10:46:09;;;;;;;9.73;2.70;;;17.00;99.90;;;;;;1856644;76;21151;-74
2021/05/28 10:48:43;;;;;;;11.48;2.80;;;17.20;99.90;;;;;;1866885;76;21112;-74
2021/05/28 10:51:13;;;;;;;7.85;2.33;;;17.30;99.90;;;;;;1861575;75;21061;-75
2021/05/28 10:53:42;;;;;;;7.92;2.40;;;17.20;99.90;;;;;;1859044;76;21133;-74
2021/05/28 10:56:14;;;;;;;10.68;2.70;;;17.20;99.90;;;;;;1862185;76;21112;-74
2021/05/28 10:58:55;;;;;;;7.12;2.42;;;17.20;99.90;;;;;;1862845;76;21621;-74
2021/05/28 11:01:51;;;;;;;8.45;2.50;;;17.20;99.90;;;;;;1869932;76;21069;-74
2021/05/28 11:04:25;;;;;;;7.75;2.10;;;17.20;99.90;;;;;;1865586;76;21265;-75
2021/05/28 11:07:02;;;;;;;6.28;2.35;;;17.20;99.90;;;;;;1851785;76;21228;-73
2021/05/28 11:09:45;;;;;;;9.10;2.27;;;17.50;99.90;;;;;;1863048;76;21127;-75
2021/05/28 11:12:16;;;;;;;;;;;17.60;99.90;;;;;;1866906;76;21113;-77
2021/05/28 11:15:04;;;;;;;10.60;2.60;;;17.50;99.90;;;;;;1864983;76;20182;-76
2021/05/28 11:17:31;;;;;;;7.65;2.70;;;17.50;99.90;;;;;;1858928;76;21129;-77
2021/05/28 11:20:03;;;;;;;9.15;2.40;;;17.80;99.90;;;;;;1864146;75;21637;-77
2021/05/28 11:22:39;;;;;;;9.75;2.42;;;17.90;99.90;;;;;;1863694;76;21152;-76
2021/05/28 11:25:13;;;;;;;6.67;2.42;;;17.80;99.90;;;;;;1866419;76;21527;-77
2021/05/28 11:27:42;;;;;;;5.45;2.58;;;17.90;99.90;;;;;;1868823;76;21066;-75
2021/05/28 11:30:13;;;;;;;8.33;2.30;;;17.90;99.90;;;;;;1864493;76;21501;-76
2021/05/28 11:32:46;;;;;;;7.50;2.27;;;17.90;99.90;;;;;;1864877;76;21586;-76
2021/05/28 11:35:28;;;;;;;6.62;2.27;;;18.10;99.90;;;;;;1860523;76;21179;-76
2021/05/28 11:38:01;;;;;;;11.10;2.25;;;18.20;99.90;;;;;;1860799;76;21203;-76
2021/05/28 11:40:31;;;;;;;9.48;2.30;;;18.40;99.90;;;;;;1862671;76;21166;-79
2021/05/28 11:43:17;;;;;;;8.40;2.40;;;18.50;99.90;;;;;;1864115;76;21654;-77
2021/05/28 11:45:47;;;;;;;5.70;1.95;;;18.70;99.90;;;;;;1865902;76;21200;-78
2021/05/28 11:48:17;;;;;;;6.92;1.90;;;18.90;99.90;;;;;;1860628;76;21558;-76
2021/05/28 11:50:52;;;;;;;4.12;1.45;;;19.20;99.90;;;;;;1861741;76;21132;-78
2021/05/28 11:53:20;;;;;;;5.53;2.12;;;19.20;99.90;;;;;;1859221;76;21575;-77
2021/05/28 11:55:56;;;;;;;4.65;1.40;;;18.90;99.90;;;;;;1862470;76;21168;-77
2021/05/28 11:58:25;;;;;;;5.45;1.70;;;19.00;99.90;;;;;;1864780;76;21113;-78
2021/05/28 12:00:54;;;;;;;5.75;1.30;;;19.30;99.90;;;;;;1864732;75;21022;-78
2021/05/28 12:03:22;;;;;;;6.45;1.77;;;19.40;99.90;;;;;;1857815;74;21099;-77
2021/05/28 12:05:51;;;;;;;8.78;1.67;;;19.50;99.90;;;;;;1862408;76;21536;-77
2021/05/28 12:08:26;;;;;;;5.40;1.65;;;19.50;99.90;;;;;;1859120;75;21080;-76
2021/05/28 12:10:58;;;;;;;6.42;1.65;;;19.30;99.90;;;;;;1862104;75;21120;-78
2021/05/28 12:13:28;;;;;;;6.83;2.15;;;19.20;99.90;;;;;;1868626;75;21101;-79
2021/05/28 12:15:58;;;;;;;6.03;1.72;;;18.90;99.90;;;;;;1860566;75;21112;-78
2021/05/28 12:18:34;;;;;;;6.80;1.92;;;18.80;99.90;;;;;;1860475;75;21128;-77
2021/05/28 12:21:10;;;;;;;8.18;1.90;;;18.70;99.90;;;;;;1868151;75;21085;-80
2021/05/28 12:23:44;;;;;;;6.00;1.95;;;18.80;99.90;;;;;;1865653;76;21168;-76
2021/05/28 12:26:23;;;;;;;6.05;1.75;;;18.90;99.90;;;;;;1866358;76;21187;-78
2021/05/28 12:28:54;;;;;;;6.80;1.98;;;18.90;99.90;;;;;;1866317;76;21073;-78
2021/05/28 12:31:24;;;;;;;5.75;1.75;;;19.00;99.90;;;;;;1862817;76;21159;-79
2021/05/28 12:33:57;;;;;;;7.40;2.27;;;19.10;99.90;;;;;;1861250;76;21104;-77
2021/05/28 12:36:42;;;;;;;8.88;2.10;;;19.20;99.90;;;;;;1864447;76;21105;-78
2021/05/28 12:39:11;;;;;;;9.00;1.52;;;19.30;99.90;;;;;;1859080;76;21045;-79
2021/05/28 12:41:40;;;;;;;4.70;1.52;;;19.30;99.90;;;;;;1861578;75;21214;-79
2021/05/28 12:44:08;;;;;;;5.35;2.00;;;19.40;99.90;;;;;;1872738;75;21061;-76
2021/05/28 12:46:38;;;;;;;6.78;1.75;;;19.40;99.90;;;;;;1868774;76;21089;-77
2021/05/28 12:49:10;;;;;;;3.75;1.27;;;19.30;99.90;;;;;;1868172;75;21112;-79